Flight Track Log - Related Links

Times and Time Zones

All times are in EDT time to prevent confusion due to time zone crossing. See the N957AN flight status page for this flight to view local times or setup timezone preferences in your user account.

Time Position Orientation Groundspeed Altitude Reporting Facility
EDT Latitude Longitude Course Direction KTS MPH feet Rate Location/Type
Thu 08:21:34 AM 42.3500 -71.0167 300° West 170 196 700  Level KA90
Thu 08:22:22 AM 42.3167 -70.9833 144° Southeast 196 226 1,900 1,632 Climbing KA90
Thu 08:23:28 AM 42.3167 -70.8833 90° East 273 314 3,800 2,143 Climbing KA90
Thu 08:24:00 AM 42.5394 -70.8030 340° North  Level FlightAware Approximate
Thu 08:24:28 AM 42.3500 -70.7833 66° East 288 331 6,400  Level KA90
Thu 08:25:00 AM 42.6107 -70.8936 308° West  Level FlightAware Approximate
Thu 08:25:18 AM 42.3958 -70.7364 37° Northeast 342 394 8,400  Level Boston Center
Thu 08:26:00 AM 42.6648 -71.0088 300° West  Level FlightAware Approximate
Thu 08:26:18 AM 42.4750 -70.7258 North 312 359 10,500  Level Boston Center
Thu 08:27:18 AM 42.5511 -70.7969 325° Northwest 295 339 12,000 1,750 Climbing Boston Center
Thu 08:28:18 AM 42.6208 -70.8686 323° Northwest 318 366 14,000 2,600 Climbing Boston Center
Thu 08:29:18 AM 42.7239 -70.9336 335° Northwest 357 411 17,200 2,650 Climbing Boston Center
Thu 08:30:18 AM 42.8042 -71.0250 320° Northwest 370 426 19,300 2,100 Climbing Boston Center
Thu 08:31:18 AM 42.8206 -71.1578 280° West 344 396 21,400 1,750 Climbing Boston Center
Thu 08:32:18 AM 42.8386 -71.2992 280° West 350 403 22,800 1,650 Climbing Boston Center
Thu 08:33:18 AM 42.8525 -71.4489 277° West 382 440 24,700 1,700 Climbing Boston Center
Thu 08:34:18 AM 42.8600 -71.5989 274° West 395 455 26,200 1,400 Climbing Boston Center
Thu 08:35:18 AM 42.8714 -71.7403 276° West 412 474 27,500 1,150 Climbing Boston Center
Thu 08:36:18 AM 42.8825 -71.8989 276° West 418 481 28,500 1,100 Climbing Boston Center
Thu 08:37:18 AM 42.8978 -72.0603 277° West 428 493 29,700 1,450 Climbing Boston Center
Thu 08:38:18 AM 42.9108 -72.2189 276° West 428 493 31,400 1,650 Climbing Boston Center
Thu 08:39:18 AM 42.9319 -72.3975 279° West 428 493 33,000 1,400 Climbing Boston Center
Thu 08:40:18 AM 42.9442 -72.5564 276° West 428 493 34,200 1,250 Climbing Boston Center
Thu 08:41:18 AM 42.9481 -72.7094 272° West 415 478 35,500 1,200 Climbing Boston Center
Thu 08:42:18 AM 42.9581 -72.8656 275° West 415 478 36,600 1,050 Climbing Boston Center
Thu 08:43:18 AM 42.9722 -73.0047 278° West 415 478 37,600 700 Climbing Boston Center
Thu 08:44:18 AM 42.9839 -73.1525 276° West 415 478 38,000 200 Climbing Boston Center
Thu 08:45:18 AM 42.9953 -73.3058 276° West 409 471 38,000  Level Boston Center
Thu 08:46:18 AM 43.0003 -73.4478 273° West 402 463 38,000 -50 Level Boston Center
Thu 08:47:18 AM 43.0094 -73.5986 275° West 402 463 37,900  Descending Boston Center
Thu 08:48:18 AM 43.0222 -73.7492 277° West 402 463 38,000 50 Climbing Boston Center
Thu 08:49:18 AM 43.0308 -73.8972 275° West 407 468 38,000  Level Boston Center
Thu 08:50:18 AM 43.0394 -74.0450 275° West 407 468 38,000  Level Boston Center
Thu 08:51:18 AM 43.0517 -74.1931 276° West 407 468 38,000  Level Boston Center
Thu 08:52:18 AM 43.0597 -74.3442 274° West 402 463 38,000  Level Boston Center
Thu 08:53:18 AM 43.0697 -74.4950 275° West 402 463 38,000  Level Boston Center
Thu 08:54:18 AM 43.0772 -74.6403 274° West 407 468 38,000 -50 Level Boston Center
Thu 08:55:18 AM 43.0869 -74.7914 275° West 407 468 37,900 -50 Descending Boston Center
Thu 08:56:18 AM 43.0942 -74.9394 274° West 407 468 37,900  Level Boston Center
Thu 08:57:18 AM 43.1033 -75.0906 275° West 407 468 37,900 50 Level Boston Center
Thu 08:58:18 AM 43.1117 -75.2586 274° West 407 468 38,000 50 Climbing Boston Center
Thu 08:59:18 AM 43.1119 -75.4125 270° West 407 468 38,000  Level Boston Center
Thu 09:00:18 AM 43.1142 -75.5633 271° West 407 468 38,000  Level Boston Center
Thu 09:01:18 AM 43.1183 -75.7114 272° West 402 463 38,000  Level Boston Center
Thu 09:02:18 AM 43.1181 -75.8622 270° West 402 463 38,000  Level Boston Center
Thu 09:03:18 AM 43.1197 -76.0103 271° West 402 463 38,000  Level Boston Center
Thu 09:05:27 AM 43.1167 -76.3000 269° West 390 449 38,000  Level Toronto Center
Thu 09:06:27 AM 43.1167 -76.4500 270° West 390 449 38,000  Level Toronto Center
Thu 09:07:27 AM 43.1000 -76.6000 261° West 390 449 38,000  Level Toronto Center
Thu 09:08:27 AM 43.1167 -76.7333 280° West 390 449 38,000  Level Toronto Center
Thu 09:09:27 AM 43.1167 -76.9000 270° West 390 449 38,000  Level Toronto Center
Thu 09:10:27 AM 43.1167 -77.0500 270° West 390 449 38,000  Level Toronto Center
Thu 09:11:27 AM 43.1000 -77.1833 260° West 400 460 38,000  Level Toronto Center
Thu 09:12:27 AM 43.1000 -77.3500 270° West 400 460 38,000  Level Toronto Center
Thu 09:13:27 AM 43.1167 -77.4833 280° West 400 460 38,000  Level Toronto Center
Thu 09:14:27 AM 43.1167 -77.6500 270° West 400 460 38,000  Level Toronto Center
Thu 09:15:27 AM 43.1000 -77.8000 261° West 400 460 38,000  Level Toronto Center
Thu 09:16:27 AM 43.1000 -77.9667 270° West 400 460 38,000  Level Toronto Center
Thu 09:17:27 AM 43.1000 -78.1000 270° West 390 449 38,000  Level Toronto Center
Thu 09:18:27 AM 43.1000 -78.2333 270° West 390 449 38,000  Level Toronto Center
Thu 09:19:27 AM 43.0833 -78.4000 262° West 390 449 38,000  Level Toronto Center
Thu 09:20:27 AM 43.1000 -78.5333 280° West 390 449 38,000  Level Toronto Center
Thu 09:21:27 AM 43.1000 -78.7000 270° West 390 449 38,000  Level Toronto Center
Thu 09:22:27 AM 43.1000 -78.8333 270° West 380 437 38,000  Level Toronto Center
Thu 09:23:27 AM 43.1000 -79.0000 270° West 380 437 38,000  Level Toronto Center
Thu 09:24:27 AM 43.0833 -79.1333 260° West 380 437 38,000  Level Toronto Center
Thu 09:25:27 AM 43.0833 -79.2667 270° West 380 437 38,000  Level Toronto Center
Thu 09:26:27 AM 43.0833 -79.4333 270° West 380 437 38,000  Level Toronto Center
Thu 09:27:27 AM 43.0833 -79.5667 270° West 370 426 38,000  Level Toronto Center
Thu 09:28:27 AM 43.0667 -79.7000 260° West 370 426 38,000  Level Toronto Center
Thu 09:29:27 AM 43.0667 -79.8333 270° West 380 437 38,000  Level Toronto Center
Thu 09:30:27 AM 43.0667 -80.0000 270° West 380 437 38,000  Level Toronto Center
Thu 09:31:27 AM 43.0667 -80.1333 270° West 380 437 38,000  Level Toronto Center
Thu 09:32:27 AM 43.0667 -80.2667 270° West 380 437 38,000  Level Toronto Center
Thu 09:33:27 AM 43.0500 -80.4333 262° West 380 437 38,000  Level Toronto Center
Thu 09:34:27 AM 43.0500 -80.5667 270° West 380 437 38,000  Level Toronto Center
Thu 09:35:27 AM 43.0500 -80.7000 270° West 380 437 38,000  Level Toronto Center
Thu 09:36:27 AM 43.0333 -80.8667 262° West 380 437 38,000  Level Toronto Center
Thu 09:37:27 AM 43.0167 -81.0000 260° West 380 437 38,000  Level Toronto Center
Thu 09:38:27 AM 43.0167 -81.1333 270° West 380 437 38,000  Level Toronto Center
Thu 09:39:27 AM 43.0167 -81.2667 270° West 380 437 38,000  Level Toronto Center
Thu 09:40:27 AM 43.0167 -81.4333 270° West 380 437 38,000  Level Toronto Center
Thu 09:41:27 AM 43.0167 -81.5667 270° West 380 437 38,000  Level Toronto Center
Thu 09:42:27 AM 43.0167 -81.7000 270° West 380 437 38,000  Level Toronto Center
Thu 09:43:27 AM 43.0167 -81.8667 270° West 380 437 38,000  Level Toronto Center
Thu 09:44:27 AM 43.0000 -82.0000 260° West 380 437 38,000  Level Toronto Center
Thu 09:45:27 AM 43.0000 -82.1667 270° West 380 437 38,000  Level Toronto Center
Thu 09:46:27 AM 43.0000 -82.3000 270° West 380 437 38,000  Level Toronto Center
Thu 09:47:27 AM 43.0000 -82.4333 270° West 370 426 38,000  Level Toronto Center
Thu 09:48:27 AM 43.0000 -82.5667 270° West 370 426 38,000  Level Toronto Center
Thu 09:48:59 AM 43.0022 -82.6583 272° West 380 437 38,000  Level Cleveland Center
Thu 09:50:00 AM 42.9994 -82.8031 269° West 380 437 38,000  Level Cleveland Center
Thu 09:50:59 AM 42.9944 -82.9447 267° West 380 437 38,000 -50 Level Cleveland Center
Thu 09:52:00 AM 42.9875 -83.0864 266° West 385 443 37,900 -496 Descending Cleveland Center
Thu 09:53:00 AM 42.9861 -83.2342 269° West 385 443 37,000 -950 Descending Cleveland Center
Thu 09:54:00 AM 42.9806 -83.3842 267° West 385 443 36,000 -950 Descending Cleveland Center
Thu 09:55:00 AM 42.9747 -83.5372 267° West 392 451 35,100 -950 Descending Cleveland Center
Thu 09:56:00 AM 42.9667 -83.6844 266° West 397 457 34,100 -950 Descending Cleveland Center
Thu 09:57:00 AM 42.9583 -83.8344 266° West 397 457 33,200 -950 Descending Cleveland Center
Thu 09:58:00 AM 42.9417 -83.9811 261° West 397 457 32,200 -600 Descending Cleveland Center
Thu 09:59:00 AM 42.9286 -84.1336 263° West 404 465 32,000 -128 Descending Cleveland Center
Thu 09:59:34 AM 42.9239 -84.1961 264° West 400 460 32,000  Level Chicago Center
Thu 10:00:36 AM 42.9089 -84.3442 262° West 397 457 32,000  Level Chicago Center
Thu 10:01:38 AM 42.8908 -84.5225 262° West 397 457 32,000  Level Chicago Center
Thu 10:02:40 AM 42.8750 -84.6700 262° West 395 455 32,000  Level Chicago Center
Thu 10:03:42 AM 42.8603 -84.8186 262° West 397 457 32,000  Level Chicago Center
Thu 10:04:44 AM 42.8450 -84.9678 262° West 398 458 32,000  Level Chicago Center
Thu 10:05:46 AM 42.8281 -85.1158 261° West 396 456 32,000  Level Chicago Center
Thu 10:06:48 AM 42.8125 -85.2639 262° West 395 455 32,000 -290 Level Chicago Center
Thu 10:07:50 AM 42.7961 -85.4139 262° West 399 459 31,400 -1,403 Descending Chicago Center
Thu 10:08:52 AM 42.7703 -85.5917 259° West 398 458 29,100 -2,177 Descending Chicago Center
Thu 10:09:54 AM 42.7425 -85.7411 256° West 404 465 26,900 -2,112 Descending Chicago Center
Thu 10:10:57 AM 42.7144 -85.8953 256° West 415 478 24,700 -2,112 Descending Chicago Center
Thu 10:11:59 AM 42.6872 -86.0458 256° West 409 471 22,500 -2,129 Descending Chicago Center
Thu 10:13:01 AM 42.6603 -86.1919 256° West 399 459 20,300 -1,210 Descending Chicago Center
Thu 10:14:03 AM 42.6339 -86.3325 256° West 385 443 20,000 -1,065 Descending Chicago Center
Thu 10:15:05 AM 42.6069 -86.4714 255° West 382 440 18,100 -2,274 Descending Chicago Center
Thu 10:16:07 AM 42.5753 -86.6417 256° West 384 442 15,300 -2,419 Descending Chicago Center
Thu 10:17:09 AM 42.5497 -86.7747 255° West 371 427 13,100 -2,177 Descending Chicago Center
Thu 10:18:11 AM 42.5139 -86.9008 249° West 364 419 10,800 -1,500 Descending Chicago Center
Thu 10:19:13 AM 42.4797 -87.0258 250° West 357 411 10,000 -387 Descending Chicago Center
Thu 10:20:15 AM 42.4456 -87.1461 249° West 348 400 10,000 -48 Level Chicago Center
Thu 10:21:17 AM 42.4144 -87.2575 249° West 316 364 9,900 -484 Descending Chicago Center
Thu 10:22:19 AM 42.3583 -87.3556 232° Southwest 307 353 9,000 -1,056 Descending Chicago Center
Thu 10:23:22 AM 42.2767 -87.3675 186° South 296 341 7,700 -960 Descending Chicago Center
Thu 10:24:24 AM 42.1944 -87.3819 187° South 299 344 7,000 -339 Descending Chicago Center
Thu 10:25:26 AM 42.1139 -87.3978 188° South 295 339 7,000 -435 Level Chicago Center
Thu 10:26:28 AM 42.0336 -87.4119 187° South 293 337 6,100 -968 Descending Chicago Center
Thu 10:27:30 AM 41.9708 -87.4961 225° Southwest 288 331 5,000 -629 Descending Chicago Center
Thu 10:28:32 AM 41.9689 -87.5936 268° West 272 313 4,800 -194 Descending Chicago Center

Login

Don't have an account? Register now (free) for customized features, flight alerts, and more!